Time;durP1;ratioP1;P1;durP2;ratioP2;P2;SDS_P1;SDS_P2;PMS_P1;PMS_P2;Temp;Humidity;BMP_temperature;BMP_pressure;BME280_temperature;BME280_humidity;BME280_pressure;Samples;Min_cycle;Max_cycle;Signal;HPM_P1;HPM_P2
2023/03/20 00:00:45;;;;;;;8.48;3.63;;;6.60;99.90;;;;;;5054494;28;20067;-71
2023/03/20 00:03:12;;;;;;;10.15;3.75;;;6.30;99.90;;;;;;5054218;28;20040;-71
2023/03/20 00:05:38;;;;;;;7.95;3.28;;;6.30;99.90;;;;;;5072208;28;20048;-71
2023/03/20 00:08:05;;;;;;;7.07;3.88;;;6.40;99.90;;;;;;5050736;28;20043;-71
2023/03/20 00:10:44;;;;;;;10.38;3.65;;;6.40;99.90;;;;;;5053661;28;20049;-71
2023/03/20 00:13:21;;;;;;;8.90;3.42;;;6.50;99.90;;;;;;5054784;28;20054;-71
2023/03/20 00:15:47;;;;;;;7.50;3.20;;;6.50;99.90;;;;;;5053807;28;20051;-71
2023/03/20 00:18:21;;;;;;;;;;;6.50;99.90;;;;;;5051111;28;20036;-71
2023/03/20 00:20:48;;;;;;;10.50;3.35;;;6.60;99.90;;;;;;5052563;28;19916;-71
2023/03/20 00:23:15;;;;;;;6.78;3.25;;;6.60;99.90;;;;;;5051562;28;20128;-71
2023/03/20 00:25:43;;;;;;;9.65;3.72;;;6.60;99.90;;;;;;5034404;28;20059;-71
2023/03/20 00:28:23;;;;;;;8.02;3.95;;;6.60;99.90;;;;;;5052204;28;20044;-71
2023/03/20 00:30:49;;;;;;;8.50;3.45;;;6.60;99.90;;;;;;5073160;28;20036;-71
2023/03/20 00:33:15;;;;;;;;;;;6.60;99.90;;;;;;5092684;28;20051;-71
2023/03/20 00:35:41;;;;;;;7.93;3.50;;;6.60;99.90;;;;;;5073847;28;19927;-69
2023/03/20 00:38:07;;;;;;;;;;;6.60;99.90;;;;;;5076726;28;20052;-69
2023/03/20 00:40:33;;;;;;;9.55;3.75;;;6.70;99.90;;;;;;5096149;28;19920;-68
2023/03/20 00:42:59;;;;;;;;;;;7.00;99.90;;;;;;5078535;28;20047;-70
2023/03/20 00:45:26;;;;;;;6.88;3.30;;;6.80;99.90;;;;;;5076899;28;19923;-68
2023/03/20 00:47:52;;;;;;;7.88;3.10;;;6.80;99.90;;;;;;5077957;28;20498;-68
2023/03/20 00:50:22;;;;;;;;;;;6.70;99.90;;;;;;5096401;28;20044;-69
2023/03/20 00:52:49;;;;;;;7.88;3.63;;;6.80;99.90;;;;;;5077061;28;20294;-68
2023/03/20 00:55:16;;;;;;;10.07;3.30;;;7.20;99.90;;;;;;5095627;28;20499;-68
2023/03/20 00:58:02;;;;;;;8.50;3.53;;;6.80;99.90;;;;;;5095092;28;20046;-69
2023/03/20 01:00:37;;;;;;;9.23;3.47;;;6.90;99.90;;;;;;5077450;28;20048;-68
2023/03/20 01:03:24;;;;;;;10.63;4.22;;;6.80;99.90;;;;;;5077683;28;20048;-68
2023/03/20 01:05:50;;;;;;;10.25;3.30;;;6.90;99.90;;;;;;5094148;28;20044;-69
2023/03/20 01:08:23;;;;;;;13.98;3.47;;;6.90;99.90;;;;;;5077522;28;20039;-69
2023/03/20 01:10:55;;;;;;;10.68;3.67;;;7.00;99.90;;;;;;5077545;28;20048;-68
2023/03/20 01:13:24;;;;;;;10.02;3.70;;;7.00;99.90;;;;;;5094772;28;20048;-69
2023/03/20 01:15:51;;;;;;;7.78;3.22;;;7.00;99.90;;;;;;5076794;28;20044;-68
2023/03/20 01:18:18;;;;;;;8.27;3.70;;;7.00;99.90;;;;;;5095718;28;20098;-69
2023/03/20 01:20:44;;;;;;;9.35;3.78;;;7.10;99.90;;;;;;5094760;28;20101;-69
2023/03/20 01:23:10;;;;;;;16.02;3.92;;;7.10;99.90;;;;;;5095749;28;20055;-69
2023/03/20 01:25:36;;;;;;;;;;;7.30;99.90;;;;;;5076955;28;20048;-69
2023/03/20 01:28:10;;;;;;;9.55;4.32;;;7.20;99.90;;;;;;5094765;28;19920;-69
2023/03/20 01:30:36;;;;;;;9.02;4.38;;;7.00;99.90;;;;;;5094790;28;20048;-68
2023/03/20 01:33:05;;;;;;;;;;;7.00;99.90;;;;;;5077408;28;20046;-68
2023/03/20 01:35:31;;;;;;;12.73;4.28;;;7.00;99.90;;;;;;5094918;28;19943;-69
2023/03/20 01:37:56;;;;;;;;;;;7.10;99.90;;;;;;5093658;28;20468;-69
2023/03/20 01:40:34;;;;;;;14.80;4.22;;;7.10;99.90;;;;;;5075911;28;19916;-69
2023/03/20 01:43:02;;;;;;;15.63;4.10;;;7.10;99.90;;;;;;5077161;28;20516;-68
2023/03/20 01:45:34;;;;;;;9.48;4.03;;;7.20;99.90;;;;;;5076788;28;20048;-69
2023/03/20 01:48:12;;;;;;;11.73;4.13;;;7.80;99.90;;;;;;5094142;28;20048;-68
2023/03/20 01:50:37;;;;;;;11.13;4.20;;;7.10;99.90;;;;;;5094923;28;20078;-68
2023/03/20 01:53:09;;;;;;;;;;;7.30;99.90;;;;;;5056139;28;20459;-68
2023/03/20 01:55:35;;;;;;;13.55;4.35;;;7.20;99.90;;;;;;5053364;28;19952;-69
2023/03/20 01:58:06;;;;;;;14.30;4.50;;;7.20;99.90;;;;;;5036501;28;20481;-69
2023/03/20 02:00:36;;;;;;;15.40;5.28;;;7.20;99.90;;;;;;5064914;28;20048;-68
2023/03/20 02:03:03;;;;;;;12.38;4.82;;;7.40;99.90;;;;;;5073256;28;20082;-69
2023/03/20 02:05:29;;;;;;;12.98;4.65;;;7.20;99.90;;;;;;5073990;28;20423;-68
2023/03/20 02:08:22;;;;;;;13.20;4.82;;;7.20;99.90;;;;;;5071356;28;20052;-69
2023/03/20 02:10:48;;;;;;;12.13;4.57;;;7.20;99.90;;;;;;5094300;28;20403;-69
2023/03/20 02:13:15;;;;;;;13.35;4.53;;;7.20;99.90;;;;;;5094347;28;20475;-68
2023/03/20 02:16:08;;;;;;;12.30;4.60;;;7.10;99.90;;;;;;5093353;28;20079;-68
2023/03/20 02:18:35;;;;;;;13.25;5.47;;;7.20;99.90;;;;;;5093816;28;20047;-68
2023/03/20 02:21:39;;;;;;;12.00;4.88;;;7.20;99.90;;;;;;5075774;28;20052;-68
2023/03/20 02:24:31;;;;;;;13.77;5.55;;;7.20;99.90;;;;;;5074620;28;20044;-68
2023/03/20 02:27:35;;;;;;;10.90;5.15;;;7.20;99.90;;;;;;5094139;28;20044;-68
2023/03/20 02:30:00;;;;;;;12.00;4.97;;;7.20;99.90;;;;;;5046080;28;20503;-68
2023/03/20 02:32:29;;;;;;;;;;;7.30;99.90;;;;;;5076070;28;20055;-70
2023/03/20 02:35:13;;;;;;;11.13;5.80;;;7.30;99.90;;;;;;5075332;28;19923;-71
2023/03/20 02:37:38;;;;;;;13.77;5.78;;;7.20;99.90;;;;;;5075113;28;20039;-71
2023/03/20 02:40:13;;;;;;;;;;;7.20;99.90;;;;;;5088256;28;20074;-71
2023/03/20 02:43:17;;;;;;;14.18;5.38;;;7.30;99.90;;;;;;5055569;28;19927;-68
2023/03/20 02:46:22;;;;;;;13.88;5.75;;;7.20;99.90;;;;;;5073122;28;20048;-68
2023/03/20 02:48:48;;;;;;;12.07;4.88;;;7.30;99.90;;;;;;5093503;28;20048;-68
2023/03/20 02:51:16;;;;;;;;;;;7.30;99.90;;;;;;5076014;28;20384;-69
2023/03/20 02:53:54;;;;;;;14.00;5.55;;;7.20;99.90;;;;;;5094759;28;19927;-69
2023/03/20 02:56:29;;;;;;;12.10;5.35;;;7.20;99.90;;;;;;5077078;28;20055;-69
2023/03/20 02:59:03;;;;;;;11.55;5.22;;;7.20;99.90;;;;;;5097233;28;20054;-67
2023/03/20 03:01:42;;;;;;;12.07;5.22;;;7.20;99.90;;;;;;5078487;28;20035;-68
2023/03/20 03:04:14;;;;;;;13.13;5.05;;;7.20;99.90;;;;;;5095320;28;20040;-68
2023/03/20 03:06:49;;;;;;;13.55;5.55;;;7.30;99.90;;;;;;5075923;28;20055;-69
2023/03/20 03:09:27;;;;;;;13.10;5.20;;;7.20;99.90;;;;;;5076554;28;20270;-69
2023/03/20 03:12:01;;;;;;;12.65;5.40;;;7.20;99.90;;;;;;5075735;28;20040;-69
2023/03/20 03:14:50;;;;;;;13.27;5.10;;;7.30;99.90;;;;;;5087585;28;20092;-69
2023/03/20 03:17:18;;;;;;;9.82;4.53;;;7.30;99.90;;;;;;5054903;28;20048;-69
2023/03/20 03:19:51;;;;;;;21.85;5.68;;;7.90;99.90;;;;;;5037988;28;20554;-69
2023/03/20 03:22:18;;;;;;;10.07;4.88;;;7.50;99.90;;;;;;5076211;28;20049;-68
2023/03/20 03:24:50;;;;;;;11.95;5.25;;;7.70;99.90;;;;;;5059095;28;20084;-68
2023/03/20 03:27:26;;;;;;;11.50;5.13;;;7.40;99.90;;;;;;5058948;28;20049;-68
2023/03/20 03:29:56;;;;;;;9.90;4.75;;;7.40;99.90;;;;;;5060047;28;20063;-68
2023/03/20 03:32:44;;;;;;;11.88;5.35;;;7.40;99.90;;;;;;5076189;28;20071;-69
2023/03/20 03:35:15;;;;;;;12.00;5.88;;;7.40;99.90;;;;;;5093425;28;20495;-68
2023/03/20 03:37:50;;;;;;;13.27;5.68;;;7.40;99.90;;;;;;5092942;28;20118;-69
2023/03/20 03:40:24;;;;;;;15.85;6.10;;;7.40;99.90;;;;;;5091088;28;20052;-69
2023/03/20 03:43:06;;;;;;;12.10;5.55;;;7.40;99.90;;;;;;5093283;28;20055;-68
2023/03/20 03:45:42;;;;;;;11.18;5.85;;;7.40;99.90;;;;;;5093045;28;20040;-68
2023/03/20 03:48:22;;;;;;;14.23;5.88;;;7.40;99.90;;;;;;5074337;28;20075;-68
2023/03/20 03:50:55;;;;;;;13.13;5.68;;;7.30;99.90;;;;;;5065524;28;20404;-68
2023/03/20 03:53:33;;;;;;;14.50;6.22;;;7.40;99.90;;;;;;5073051;28;20067;-69
2023/03/20 03:56:03;;;;;;;14.38;6.13;;;7.40;99.90;;;;;;5091838;28;20056;-68
2023/03/20 03:58:51;;;;;;;12.70;6.40;;;7.30;99.90;;;;;;5074438;28;20089;-68
2023/03/20 04:01:19;;;;;;;12.35;5.93;;;7.30;99.90;;;;;;5075749;28;20080;-68
2023/03/20 04:04:09;;;;;;;16.90;6.20;;;7.60;99.90;;;;;;5092998;28;20401;-68
2023/03/20 04:06:35;;;;;;;14.00;6.88;;;7.40;99.90;;;;;;5074444;28;20063;-69
2023/03/20 04:09:01;;;;;;;13.63;6.38;;;7.40;99.90;;;;;;5091859;28;20036;-68
2023/03/20 04:11:28;;;;;;;;;;;7.40;99.90;;;;;;5094452;28;20047;-68
2023/03/20 04:13:54;;;;;;;11.43;6.73;;;7.30;99.90;;;;;;5060103;28;19971;-68
2023/03/20 04:16:23;;;;;;;16.00;7.20;;;7.90;99.90;;;;;;5057250;28;20047;-68
2023/03/20 04:18:49;;;;;;;11.02;6.15;;;7.40;99.90;;;;;;5058652;28;20545;-69
2023/03/20 04:21:15;;;;;;;16.73;8.25;;;7.40;99.90;;;;;;5058448;28;20052;-68
2023/03/20 04:23:41;;;;;;;;;;;7.40;99.90;;;;;;5058278;28;20032;-68
2023/03/20 04:26:07;;;;;;;16.60;7.65;;;7.30;99.90;;;;;;5075757;28;19942;-68
2023/03/20 04:28:32;;;;;;;;;;;7.30;99.90;;;;;;5058378;28;20083;-68
2023/03/20 04:31:00;;;;;;;20.52;8.40;;;7.30;99.90;;;;;;5060188;28;19932;-68
2023/03/20 04:33:26;;;;;;;19.00;8.63;;;7.30;99.90;;;;;;5078232;28;20483;-69
2023/03/20 04:35:53;;;;;;;18.50;9.10;;;7.30;99.90;;;;;;5078075;28;20047;-68
2023/03/20 04:38:19;;;;;;;23.08;10.60;;;7.20;99.90;;;;;;5077470;28;20048;-69
2023/03/20 04:40:45;;;;;;;22.45;9.82;;;7.20;99.90;;;;;;5069075;28;20399;-68
2023/03/20 04:43:12;;;;;;;18.92;9.90;;;7.20;99.90;;;;;;5076822;28;20114;-68
2023/03/20 04:45:39;;;;;;;19.27;9.20;;;7.30;99.90;;;;;;5082758;28;20048;-68
2023/03/20 04:48:04;;;;;;;19.88;10.15;;;7.20;99.90;;;;;;5077587;28;20036;-70
2023/03/20 04:50:30;;;;;;;;;;;7.30;99.90;;;;;;5075219;28;20043;-69
2023/03/20 04:52:56;;;;;;;16.23;9.75;;;7.20;99.90;;;;;;5057515;28;20007;-70
2023/03/20 04:55:21;;;;;;;;;;;7.50;99.90;;;;;;5059906;28;20523;-69
2023/03/20 04:57:48;;;;;;;18.70;9.38;;;7.20;99.90;;;;;;5091024;28;19926;-70
2023/03/20 05:00:14;;;;;;;16.45;9.23;;;7.80;99.90;;;;;;5075838;28;20488;-71
2023/03/20 05:02:40;;;;;;;19.00;9.60;;;7.20;99.90;;;;;;5057287;28;20044;-70
2023/03/20 05:05:05;;;;;;;;;;;7.20;99.90;;;;;;5075347;28;20051;-71
2023/03/20 05:07:31;;;;;;;19.73;9.02;;;7.20;99.90;;;;;;5057078;28;19925;-73
2023/03/20 05:09:57;;;;;;;;;;;7.20;99.90;;;;;;5057819;28;20052;-72
2023/03/20 05:12:25;;;;;;;15.23;8.13;;;7.20;99.90;;;;;;5053258;28;19927;-73
2023/03/20 05:14:53;;;;;;;15.73;7.90;;;7.20;99.90;;;;;;5055394;28;20051;-69
2023/03/20 05:17:23;;;;;;;15.25;7.82;;;7.50;99.90;;;;;;5051592;28;20071;-71
2023/03/20 05:19:49;;;;;;;21.08;10.05;;;7.20;99.90;;;;;;5058832;28;20032;-69
2023/03/20 05:22:17;;;;;;;;;;;7.10;99.90;;;;;;5095517;28;20406;-70
2023/03/20 05:24:43;;;;;;;15.82;8.70;;;7.10;99.90;;;;;;5095211;28;19924;-70
2023/03/20 05:27:09;;;;;;;;;;;7.20;99.90;;;;;;5081404;28;20082;-70
2023/03/20 05:29:35;;;;;;;17.55;9.40;;;7.10;99.90;;;;;;5056826;28;19932;-70
2023/03/20 05:32:00;;;;;;;;;;;7.10;99.90;;;;;;5057238;28;20048;-69
2023/03/20 05:34:26;;;;;;;17.02;9.90;;;7.00;99.90;;;;;;5055602;28;19931;-69
2023/03/20 05:36:52;;;;;;;;;;;7.00;99.90;;;;;;5064677;28;20044;-69
2023/03/20 05:39:18;;;;;;;17.92;9.25;;;7.30;99.90;;;;;;5088453;28;19920;-75
2023/03/20 05:41:43;;;;;;;;;;;7.30;99.90;;;;;;5095818;28;20047;-72
2023/03/20 05:44:09;;;;;;;15.07;9.02;;;7.00;99.90;;;;;;5077588;28;19928;-73
2023/03/20 05:46:34;;;;;;;;;;;7.10;99.90;;;;;;5068739;28;20049;-72
2023/03/20 05:49:00;;;;;;;18.83;8.68;;;7.00;99.90;;;;;;5061094;28;20280;-72
2023/03/20 05:51:26;;;;;;;18.55;9.02;;;7.40;99.90;;;;;;5036594;28;20517;-74
2023/03/20 05:53:52;;;;;;;;;;;7.00;99.90;;;;;;5038058;28;20131;-72
2023/03/20 05:56:21;;;;;;;24.08;10.32;;;7.00;99.90;;;;;;5059964;28;19928;-73
2023/03/20 05:58:47;;;;;;;19.25;9.57;;;6.90;99.90;;;;;;5089259;28;20117;-71
2023/03/20 06:01:17;;;;;;;;;;;7.00;99.90;;;;;;5076225;28;20121;-71
2023/03/20 06:03:43;;;;;;;23.95;10.52;;;6.90;99.90;;;;;;5055778;28;20033;-75
2023/03/20 06:06:08;;;;;;;;;;;6.90;99.90;;;;;;5055957;28;20448;-73
2023/03/20 06:08:35;;;;;;;26.15;10.45;;;6.90;99.90;;;;;;5036436;28;19928;-75
2023/03/20 06:11:02;;;;;;;23.25;11.13;;;7.00;99.90;;;;;;5055074;28;20110;-69
2023/03/20 06:13:28;;;;;;;23.52;10.95;;;7.10;99.90;;;;;;5060369;28;20037;-71
2023/03/20 06:15:54;;;;;;;;;;;7.10;99.90;;;;;;5056115;28;20450;-71
2023/03/20 06:18:20;;;;;;;21.85;10.32;;;7.00;99.90;;;;;;5074096;28;19930;-71
2023/03/20 06:20:45;;;;;;;;;;;7.50;99.90;;;;;;5071553;28;20043;-75
2023/03/20 06:23:12;;;;;;;20.25;11.13;;;7.10;99.90;;;;;;5055150;28;19921;-76
2023/03/20 06:25:38;;;;;;;17.80;10.30;;;7.00;99.90;;;;;;5073337;28;20049;-71
2023/03/20 06:28:03;;;;;;;;;;;7.10;99.90;;;;;;5060079;28;20042;-70
2023/03/20 06:30:29;;;;;;;19.75;10.30;;;7.10;99.90;;;;;;5079366;28;19920;-70
2023/03/20 06:32:54;;;;;;;;;;;7.10;99.90;;;;;;5073845;28;20048;-70
2023/03/20 06:35:20;;;;;;;22.42;9.40;;;7.20;99.90;;;;;;5071221;28;20376;-71
2023/03/20 06:37:46;;;;;;;;;;;7.50;99.90;;;;;;5080839;28;20173;-73
2023/03/20 06:40:11;;;;;;;24.80;10.98;;;7.20;99.90;;;;;;5073753;28;20287;-71
2023/03/20 06:42:37;;;;;;;;;;;7.20;99.90;;;;;;5063209;28;20329;-72
2023/03/20 06:45:03;;;;;;;20.40;10.65;;;7.20;99.90;;;;;;5052845;28;19921;-70
2023/03/20 06:47:29;;;;;;;;;;;7.20;99.90;;;;;;5053182;28;20102;-72
2023/03/20 06:49:55;;;;;;;20.35;10.85;;;7.30;99.90;;;;;;5070370;28;19932;-71
2023/03/20 06:52:21;;;;;;;;;;;7.30;99.90;;;;;;5073183;28;20032;-71
2023/03/20 06:54:50;;;;;;;24.13;10.48;;;7.30;99.90;;;;;;5061672;28;19920;-70
2023/03/20 06:57:17;;;;;;;23.38;11.70;;;7.40;99.90;;;;;;5076726;28;20395;-70
2023/03/20 06:59:42;;;;;;;25.33;11.02;;;7.40;99.90;;;;;;5075755;28;20041;-69
2023/03/20 07:02:09;;;;;;;;;;;7.40;99.90;;;;;;5076601;28;20036;-70
2023/03/20 07:04:35;;;;;;;22.30;10.63;;;7.50;99.90;;;;;;5063449;28;19964;-69
2023/03/20 07:07:00;;;;;;;;;;;7.50;99.90;;;;;;5045322;28;20069;-71
2023/03/20 07:09:26;;;;;;;21.42;9.95;;;8.00;99.90;;;;;;5048134;28;19971;-72
2023/03/20 07:11:53;;;;;;;;;;;7.50;99.90;;;;;;5072325;28;20087;-71
2023/03/20 07:14:19;;;;;;;18.20;9.60;;;7.60;99.90;;;;;;5054850;28;19923;-72
2023/03/20 07:16:44;;;;;;;;;;;7.60;99.90;;;;;;5073442;28;20045;-74
2023/03/20 07:19:12;;;;;;;22.58;10.35;;;7.60;99.90;;;;;;5072518;28;20014;-69
2023/03/20 07:21:37;;;;;;;16.92;8.60;;;7.60;99.90;;;;;;5071923;28;20074;-71
2023/03/20 07:24:07;;;;;;;;;;;8.20;99.90;;;;;;5055219;28;20072;-72
2023/03/20 07:26:32;;;;;;;18.33;10.27;;;7.80;99.90;;;;;;5053996;28;19927;-72
2023/03/20 07:28:58;;;;;;;;;;;7.80;99.90;;;;;;5073681;28;20041;-73
2023/03/20 07:31:27;;;;;;;20.27;9.80;;;7.90;99.90;;;;;;5054750;28;19965;-72
2023/03/20 07:33:53;;;;;;;19.50;10.05;;;7.80;99.90;;;;;;5072163;28;20105;-71
2023/03/20 07:36:21;;;;;;;17.30;9.55;;;7.80;99.90;;;;;;5038123;28;20053;-72
2023/03/20 07:38:47;;;;;;;;;;;7.80;99.90;;;;;;5052518;28;20051;-72
2023/03/20 07:41:13;;;;;;;22.95;10.90;;;7.90;99.90;;;;;;5052549;28;19917;-72
2023/03/20 07:43:38;;;;;;;21.23;10.23;;;7.90;99.90;;;;;;5052395;28;20108;-73
2023/03/20 07:46:05;;;;;;;;;;;7.90;99.90;;;;;;5034213;28;20048;-71
2023/03/20 07:48:40;;;;;;;20.70;9.57;;;7.90;99.90;;;;;;5034404;28;19928;-72
2023/03/20 07:51:06;;;;;;;17.92;9.45;;;8.00;99.90;;;;;;5052629;28;20080;-73
2023/03/20 07:53:31;;;;;;;;;;;8.10;99.90;;;;;;5034149;28;20098;-70
2023/03/20 07:55:57;;;;;;;20.13;9.57;;;8.20;99.90;;;;;;5042068;28;20392;-71
2023/03/20 07:58:24;;;;;;;20.40;9.55;;;8.10;99.90;;;;;;5051192;28;20045;-71
2023/03/20 08:00:49;;;;;;;;;;;8.20;99.90;;;;;;5050952;28;20099;-71
2023/03/20 08:03:15;;;;;;;20.42;10.85;;;8.30;99.90;;;;;;5055922;28;20406;-71
2023/03/20 08:05:41;;;;;;;;;;;8.20;99.90;;;;;;5054361;28;20053;-71
2023/03/20 08:08:06;;;;;;;21.05;8.95;;;8.30;99.90;;;;;;5050467;28;19921;-71
2023/03/20 08:10:32;;;;;;;;;;;8.30;99.90;;;;;;5052361;28;20037;-73
2023/03/20 08:12:58;;;;;;;19.75;8.75;;;8.40;99.90;;;;;;5052421;28;19921;-72
2023/03/20 08:15:23;;;;;;;;;;;8.50;99.90;;;;;;5050248;28;20086;-73
2023/03/20 08:17:49;;;;;;;19.00;9.07;;;8.50;99.90;;;;;;5052765;28;19921;-72
2023/03/20 08:20:15;;;;;;;;;;;8.60;99.90;;;;;;5052739;28;20519;-72
2023/03/20 08:22:43;;;;;;;14.77;8.00;;;8.60;99.90;;;;;;5050299;28;19928;-72
2023/03/20 08:25:09;;;;;;;14.20;8.05;;;8.70;99.90;;;;;;5051998;28;20397;-72
2023/03/20 08:27:35;;;;;;;15.98;8.63;;;8.70;99.90;;;;;;5050625;28;20138;-72
2023/03/20 08:30:02;;;;;;;23.98;9.38;;;8.70;99.90;;;;;;5050176;28;20049;-72
2023/03/20 08:32:28;;;;;;;17.17;8.38;;;8.70;99.90;;;;;;5047382;28;20053;-72
2023/03/20 08:34:54;;;;;;;;;;;8.80;99.90;;;;;;5032200;28;20041;-72
2023/03/20 08:37:23;;;;;;;14.52;4.72;;;9.60;99.90;;;;;;5031335;28;19928;-72
2023/03/20 08:39:49;;;;;;;16.65;7.70;;;9.10;99.90;;;;;;5068551;28;20052;-72
2023/03/20 08:42:14;;;;;;;;;;;9.00;99.90;;;;;;5069585;28;20244;-72
2023/03/20 08:44:40;;;;;;;16.45;7.75;;;9.10;99.90;;;;;;5067929;28;20027;-72
2023/03/20 08:47:06;;;;;;;;;;;9.00;99.90;;;;;;5069294;28;20055;-72
2023/03/20 08:49:35;;;;;;;16.65;7.18;;;9.20;99.90;;;;;;5068720;28;19924;-72
2023/03/20 08:52:01;;;;;;;18.00;8.05;;;9.20;99.90;;;;;;5069651;28;20064;-72
2023/03/20 08:54:27;;;;;;;;;;;9.10;99.90;;;;;;5069793;28;20083;-72
2023/03/20 08:56:52;;;;;;;18.10;8.23;;;9.20;99.90;;;;;;5069790;28;19920;-72
2023/03/20 08:59:18;;;;;;;15.70;7.32;;;9.10;99.90;;;;;;5071288;28;20044;-72
2023/03/20 09:01:44;;;;;;;18.02;7.90;;;9.20;99.90;;;;;;5074528;28;20131;-72
2023/03/20 09:04:12;;;;;;;17.48;8.55;;;9.30;99.90;;;;;;5073556;28;20139;-72
2023/03/20 09:06:38;;;;;;;17.17;8.98;;;9.20;99.90;;;;;;5075289;28;20049;-72
2023/03/20 09:09:04;;;;;;;;;;;9.30;99.90;;;;;;5063104;28;20456;-72
2023/03/20 09:11:31;;;;;;;16.35;7.05;;;9.40;99.90;;;;;;5045375;28;19963;-72
2023/03/20 09:13:57;;;;;;;20.13;7.43;;;9.60;99.90;;;;;;5054049;28;20052;-72
2023/03/20 09:16:22;;;;;;;;;;;9.60;99.90;;;;;;5054114;28;20044;-72
2023/03/20 09:18:48;;;;;;;14.57;7.53;;;9.50;99.90;;;;;;5053725;28;19990;-72
2023/03/20 09:21:14;;;;;;;;;;;9.50;99.90;;;;;;5054323;28;20481;-72
2023/03/20 09:23:39;;;;;;;19.77;6.85;;;9.50;99.90;;;;;;5050510;28;19943;-72
2023/03/20 09:26:05;;;;;;;18.50;8.50;;;9.60;99.90;;;;;;5034339;28;20091;-72
2023/03/20 09:28:31;;;;;;;;;;;9.60;99.90;;;;;;5034684;28;20092;-72
2023/03/20 09:30:58;;;;;;;16.20;8.15;;;9.60;99.90;;;;;;5034109;28;19917;-71
2023/03/20 09:33:24;;;;;;;18.42;8.27;;;9.60;99.90;;;;;;5034213;28;20521;-72
2023/03/20 09:35:50;;;;;;;18.85;7.50;;;9.70;99.90;;;;;;5033933;28;20477;-72
2023/03/20 09:38:16;;;;;;;;;;;9.60;99.90;;;;;;5038481;28;20052;-72
2023/03/20 09:40:55;;;;;;;18.20;7.20;;;9.60;99.90;;;;;;5049569;28;19921;-72
2023/03/20 09:43:42;;;;;;;17.95;6.53;;;9.40;99.90;;;;;;5034810;28;20056;-72
2023/03/20 09:46:10;;;;;;;15.90;7.78;;;9.50;99.90;;;;;;5033242;28;20045;-72
2023/03/20 09:49:06;;;;;;;15.13;7.40;;;9.50;99.90;;;;;;5039058;28;20052;-72
2023/03/20 09:51:52;;;;;;;18.30;7.57;;;9.40;99.90;;;;;;5053209;28;20045;-72
2023/03/20 09:54:23;;;;;;;19.65;8.63;;;9.40;99.90;;;;;;5057294;28;20059;-72
2023/03/20 09:56:50;;;;;;;20.17;7.72;;;9.70;99.90;;;;;;5074352;28;20407;-72
2023/03/20 09:59:18;;;;;;;18.58;7.93;;;9.40;99.90;;;;;;5053235;28;20504;-72
2023/03/20 10:01:51;;;;;;;16.15;7.10;;;9.50;99.90;;;;;;5035977;28;20045;-72
2023/03/20 10:04:17;;;;;;;14.02;6.32;;;9.40;99.90;;;;;;5036587;28;20516;-72
2023/03/20 10:06:43;;;;;;;15.68;6.00;;;9.40;99.90;;;;;;5036058;28;20369;-72
2023/03/20 10:09:13;;;;;;;;;;;9.30;99.90;;;;;;5065587;28;20055;-71
2023/03/20 10:12:31;;;;;;;17.05;5.72;;;9.40;99.90;;;;;;5076016;28;19924;-72
2023/03/20 10:14:56;;;;;;;15.57;5.63;;;9.30;99.90;;;;;;5054736;28;20091;-72
2023/03/20 10:17:41;;;;;;;;;;;9.30;99.90;;;;;;5094611;28;20079;-72
2023/03/20 10:20:47;;;;;;;16.13;6.18;;;9.20;99.90;;;;;;5075183;28;19928;-72
2023/03/20 10:23:41;;;;;;;14.00;5.47;;;9.20;99.90;;;;;;5076408;28;20163;-72
2023/03/20 10:26:19;;;;;;;14.30;5.72;;;9.20;99.90;;;;;;5034102;28;20189;-71
2023/03/20 10:28:58;;;;;;;14.73;6.38;;;9.30;99.90;;;;;;5080761;28;20123;-72
2023/03/20 10:31:43;;;;;;;13.95;5.80;;;9.40;99.90;;;;;;5095987;28;20080;-72
2023/03/20 10:35:04;;;;;;;16.55;5.55;;;9.40;99.90;;;;;;5097968;28;20582;-72
2023/03/20 10:37:47;;;;;;;18.48;6.07;;;9.30;99.90;;;;;;4979511;28;20058;-72
2023/03/20 10:40:38;;;;;;;15.32;5.85;;;9.30;99.90;;;;;;5073797;28;20082;-71
2023/03/20 10:43:20;;;;;;;16.25;5.20;;;9.40;99.90;;;;;;5062548;28;20037;-72
2023/03/20 10:46:31;;;;;;;17.70;5.05;;;9.50;99.90;;;;;;5044309;28;20063;-71
2023/03/20 10:49:17;;;;;;;16.75;4.25;;;9.60;99.90;;;;;;5044378;28;20041;-70
2023/03/20 10:51:53;;;;;;;14.65;5.43;;;9.50;99.90;;;;;;5064913;28;20138;-72
2023/03/20 10:54:40;;;;;;;14.65;4.20;;;9.40;99.90;;;;;;5062658;28;20103;-72
2023/03/20 10:57:13;;;;;;;13.50;5.15;;;9.60;99.90;;;;;;5060398;28;20052;-71
2023/03/20 10:59:49;;;;;;;13.02;4.30;;;9.60;99.90;;;;;;5054529;28;20051;-72
2023/03/20 11:02:17;;;;;;;10.18;3.05;;;9.50;99.90;;;;;;5092444;28;20100;-71
2023/03/20 11:04:43;;;;;;;13.60;3.88;;;9.60;99.90;;;;;;5074436;28;20457;-71
2023/03/20 11:07:25;;;;;;;10.23;4.00;;;9.60;99.90;;;;;;5075465;28;20044;-71
2023/03/20 11:10:15;;;;;;;16.45;4.22;;;9.50;99.90;;;;;;5092317;28;20043;-71
2023/03/20 11:12:48;;;;;;;9.82;3.90;;;9.30;99.90;;;;;;5043455;28;20491;-71
2023/03/20 11:15:28;;;;;;;16.02;4.15;;;9.20;99.90;;;;;;5055656;28;20059;-70
2023/03/20 11:18:04;;;;;;;14.85;4.70;;;9.10;99.90;;;;;;5054820;28;20044;-70
2023/03/20 11:20:39;;;;;;;10.47;4.17;;;9.60;99.90;;;;;;5072286;28;20040;-70
2023/03/20 11:23:09;;;;;;;11.32;4.65;;;8.90;99.90;;;;;;5054906;28;20297;-71
2023/03/20 11:25:47;;;;;;;10.85;5.05;;;8.80;99.90;;;;;;5058596;28;20071;-71
2023/03/20 11:28:25;;;;;;;12.10;4.82;;;8.80;99.90;;;;;;5075340;28;20391;-70
2023/03/20 11:31:01;;;;;;;11.48;5.38;;;8.90;99.90;;;;;;5075047;28;20063;-71
2023/03/20 11:33:28;;;;;;;10.80;4.93;;;9.00;99.90;;;;;;5074899;28;20056;-71
2023/03/20 11:35:56;;;;;;;12.00;6.22;;;9.00;99.90;;;;;;5093229;28;20126;-70
2023/03/20 11:38:22;;;;;;;11.48;6.13;;;9.00;99.90;;;;;;5073820;28;20040;-71
2023/03/20 11:40:51;;;;;;;9.55;4.30;;;8.90;99.90;;;;;;5091357;28;20510;-70
2023/03/20 11:43:27;;;;;;;9.70;4.72;;;9.00;99.90;;;;;;5092884;28;20399;-70
2023/03/20 11:45:59;;;;;;;7.40;4.78;;;9.10;99.90;;;;;;5073919;28;20368;-71
2023/03/20 11:48:40;;;;;;;8.73;5.28;;;9.00;99.90;;;;;;5088142;28;20029;-71
2023/03/20 11:51:09;;;;;;;9.15;5.25;;;9.00;99.90;;;;;;5072700;28;20049;-71
2023/03/20 11:53:39;;;;;;;9.18;6.45;;;9.20;99.90;;;;;;5053478;28;20040;-71
2023/03/20 11:56:12;;;;;;;6.28;4.75;;;9.00;99.90;;;;;;5054737;28;20154;-71
2023/03/20 11:58:56;;;;;;;7.28;5.28;;;9.20;99.90;;;;;;5072146;28;20048;-71
2023/03/20 12:01:22;;;;;;;8.07;5.38;;;9.20;99.90;;;;;;5073957;28;20032;-71
2023/03/20 12:03:54;;;;;;;;;;;9.00;99.90;;;;;;5092849;28;20047;-71
2023/03/20 12:06:24;;;;;;;7.68;5.38;;;8.90;99.90;;;;;;5073742;28;19923;-71
2023/03/20 12:08:59;;;;;;;9.90;5.35;;;9.30;99.90;;;;;;5092117;28;20044;-71
2023/03/20 12:11:44;;;;;;;7.15;5.25;;;9.70;99.90;;;;;;5074206;28;20036;-71
2023/03/20 12:14:26;;;;;;;6.70;4.85;;;9.00;99.90;;;;;;5073646;28;20047;-71
2023/03/20 12:17:07;;;;;;;7.10;5.03;;;9.00;99.90;;;;;;5074084;28;20126;-71
2023/03/20 12:19:34;;;;;;;6.38;4.25;;;9.00;99.90;;;;;;5073074;28;20041;-71
2023/03/20 12:22:32;;;;;;;8.48;4.60;;;9.20;99.90;;;;;;5071635;28;20090;-70
2023/03/20 12:25:15;;;;;;;;;;;9.20;99.90;;;;;;5038950;28;20056;-71
2023/03/20 12:27:55;;;;;;;6.68;4.35;;;9.30;99.90;;;;;;5053238;28;20007;-71
2023/03/20 12:30:50;;;;;;;7.28;5.20;;;9.30;99.90;;;;;;5072000;28;20072;-71
2023/03/20 12:33:28;;;;;;;7.68;4.80;;;9.20;99.90;;;;;;5075232;28;20111;-71
2023/03/20 12:35:56;;;;;;;7.75;5.22;;;9.00;99.90;;;;;;5075080;28;20049;-71
2023/03/20 12:38:30;;;;;;;7.60;5.53;;;9.10;99.90;;;;;;5058216;28;20052;-71
2023/03/20 12:41:12;;;;;;;7.15;4.90;;;9.00;99.90;;;;;;5076251;28;20059;-71
2023/03/20 12:44:14;;;;;;;8.85;5.80;;;9.00;99.90;;;;;;5066369;28;20040;-71
2023/03/20 12:46:53;;;;;;;7.68;5.15;;;9.00;99.90;;;;;;5054559;28;20044;-71
2023/03/20 12:49:27;;;;;;;8.27;5.72;;;9.10;99.90;;;;;;5054830;28;20053;-71
2023/03/20 12:52:19;;;;;;;7.07;5.25;;;9.00;99.90;;;;;;5048448;28;20484;-72
2023/03/20 12:55:28;;;;;;;7.53;4.95;;;9.10;99.90;;;;;;5057580;28;20044;-72
2023/03/20 12:58:18;;;;;;;8.80;5.35;;;9.00;99.90;;;;;;5031486;28;20049;-71
2023/03/20 13:01:05;;;;;;;8.77;5.78;;;9.00;99.90;;;;;;5077945;28;20047;-71
2023/03/20 13:03:54;;;;;;;9.45;5.80;;;9.00;99.90;;;;;;5077135;28;20047;-70
2023/03/20 13:06:27;;;;;;;7.28;5.40;;;9.00;99.90;;;;;;5076978;28;20044;-71
2023/03/20 13:08:55;;;;;;;7.43;5.78;;;9.00;99.90;;;;;;5089436;28;20044;-71
2023/03/20 13:11:41;;;;;;;7.43;5.82;;;9.00;99.90;;;;;;5074493;28;20044;-71
2023/03/20 13:14:33;;;;;;;8.93;6.57;;;9.00;99.90;;;;;;5057821;28;20127;-71
2023/03/20 13:17:49;;;;;;;9.35;6.70;;;9.00;99.90;;;;;;5074858;28;20040;-71
2023/03/20 13:20:33;;;;;;;9.15;6.78;;;9.00;99.90;;;;;;4977737;28;20058;-71
2023/03/20 13:23:29;;;;;;;9.25;7.20;;;9.00;99.90;;;;;;5057670;28;20050;-71
2023/03/20 13:25:58;;;;;;;9.03;6.50;;;9.00;99.90;;;;;;5047453;28;20189;-71
2023/03/20 13:29:08;;;;;;;10.80;6.90;;;9.00;99.90;;;;;;5076735;28;20293;-71
2023/03/20 13:31:36;;;;;;;8.90;6.65;;;9.00;99.90;;;;;;5076378;28;20121;-71
2023/03/20 13:34:08;;;;;;;10.13;6.72;;;9.00;99.90;;;;;;5076600;28;20101;-71